sensor_id;sensor_type;location;lat;lon;timestamp;P1;durP1;ratioP1;P2;durP2;ratioP2
53036;SDS011;38924;52.134;4.666;2023-01-19T00:01:12;11.65;;;3.53;;
53036;SDS011;38924;52.134;4.666;2023-01-19T00:03:38;13.52;;;4.30;;
53036;SDS011;38924;52.134;4.666;2023-01-19T00:06:07;12.05;;;5.45;;
53036;SDS011;38924;52.134;4.666;2023-01-19T00:08:33;16.65;;;5.07;;
53036;SDS011;38924;52.134;4.666;2023-01-19T00:11:00;15.60;;;7.00;;
53036;SDS011;38924;52.134;4.666;2023-01-19T00:13:29;6.78;;;4.55;;
53036;SDS011;38924;52.134;4.666;2023-01-19T00:15:57;11.18;;;6.22;;
53036;SDS011;38924;52.134;4.666;2023-01-19T00:18:26;8.50;;;4.47;;
53036;SDS011;38924;52.134;4.666;2023-01-19T00:20:54;9.07;;;4.70;;
53036;SDS011;38924;52.134;4.666;2023-01-19T00:23:20;35.78;;;13.20;;
53036;SDS011;38924;52.134;4.666;2023-01-19T00:25:45;5.15;;;4.65;;
53036;SDS011;38924;52.134;4.666;2023-01-19T00:28:14;5.50;;;3.70;;
53036;SDS011;38924;52.134;4.666;2023-01-19T00:30:40;9.20;;;4.43;;
53036;SDS011;38924;52.134;4.666;2023-01-19T00:33:06;9.60;;;4.07;;
53036;SDS011;38924;52.134;4.666;2023-01-19T00:35:33;5.70;;;4.07;;
53036;SDS011;38924;52.134;4.666;2023-01-19T00:37:58;6.07;;;4.32;;
53036;SDS011;38924;52.134;4.666;2023-01-19T00:40:24;12.75;;;5.38;;
53036;SDS011;38924;52.134;4.666;2023-01-19T00:42:50;14.80;;;5.10;;
53036;SDS011;38924;52.134;4.666;2023-01-19T00:45:17;9.23;;;5.68;;
53036;SDS011;38924;52.134;4.666;2023-01-19T00:47:48;13.90;;;6.10;;
53036;SDS011;38924;52.134;4.666;2023-01-19T00:50:19;15.48;;;5.88;;
53036;SDS011;38924;52.134;4.666;2023-01-19T00:52:45;13.05;;;6.75;;
53036;SDS011;38924;52.134;4.666;2023-01-19T00:55:12;11.88;;;6.90;;
53036;SDS011;38924;52.134;4.666;2023-01-19T00:57:50;15.60;;;6.63;;
53036;SDS011;38924;52.134;4.666;2023-01-19T01:00:16;11.38;;;6.50;;
53036;SDS011;38924;52.134;4.666;2023-01-19T01:02:44;14.15;;;7.47;;
53036;SDS011;38924;52.134;4.666;2023-01-19T01:05:10;13.45;;;5.93;;
53036;SDS011;38924;52.134;4.666;2023-01-19T01:07:36;11.50;;;6.40;;
53036;SDS011;38924;52.134;4.666;2023-01-19T01:10:06;13.15;;;6.55;;
53036;SDS011;38924;52.134;4.666;2023-01-19T01:12:33;10.40;;;5.55;;
53036;SDS011;38924;52.134;4.666;2023-01-19T01:14:59;14.23;;;6.60;;
53036;SDS011;38924;52.134;4.666;2023-01-19T01:17:24;14.07;;;5.35;;
53036;SDS011;38924;52.134;4.666;2023-01-19T01:19:50;13.15;;;5.70;;
53036;SDS011;38924;52.134;4.666;2023-01-19T01:22:17;12.15;;;5.93;;
53036;SDS011;38924;52.134;4.666;2023-01-19T01:24:43;10.00;;;6.53;;
53036;SDS011;38924;52.134;4.666;2023-01-19T01:27:09;14.27;;;5.13;;
53036;SDS011;38924;52.134;4.666;2023-01-19T01:29:36;8.50;;;5.40;;
53036;SDS011;38924;52.134;4.666;2023-01-19T01:32:01;9.23;;;5.15;;
53036;SDS011;38924;52.134;4.666;2023-01-19T01:34:31;10.25;;;6.18;;
53036;SDS011;38924;52.134;4.666;2023-01-19T01:36:59;10.23;;;5.00;;
53036;SDS011;38924;52.134;4.666;2023-01-19T01:39:25;9.23;;;5.10;;
53036;SDS011;38924;52.134;4.666;2023-01-19T01:41:51;7.25;;;5.70;;
53036;SDS011;38924;52.134;4.666;2023-01-19T01:47:01;13.52;;;4.75;;
53036;SDS011;38924;52.134;4.666;2023-01-19T01:49:27;11.85;;;3.92;;
53036;SDS011;38924;52.134;4.666;2023-01-19T01:51:53;11.55;;;5.10;;
53036;SDS011;38924;52.134;4.666;2023-01-19T01:54:23;9.52;;;5.47;;
53036;SDS011;38924;52.134;4.666;2023-01-19T01:56:51;11.02;;;5.28;;
53036;SDS011;38924;52.134;4.666;2023-01-19T01:59:24;18.83;;;5.82;;
53036;SDS011;38924;52.134;4.666;2023-01-19T02:01:54;11.88;;;5.47;;
53036;SDS011;38924;52.134;4.666;2023-01-19T02:04:39;13.38;;;5.38;;
53036;SDS011;38924;52.134;4.666;2023-01-19T02:07:08;13.45;;;5.03;;
53036;SDS011;38924;52.134;4.666;2023-01-19T02:09:54;15.48;;;6.05;;
53036;SDS011;38924;52.134;4.666;2023-01-19T02:12:41;10.65;;;6.10;;
53036;SDS011;38924;52.134;4.666;2023-01-19T02:15:27;11.63;;;5.90;;
53036;SDS011;38924;52.134;4.666;2023-01-19T02:17:53;12.02;;;5.63;;
53036;SDS011;38924;52.134;4.666;2023-01-19T02:20:18;20.65;;;8.13;;
53036;SDS011;38924;52.134;4.666;2023-01-19T02:22:46;16.42;;;6.22;;
53036;SDS011;38924;52.134;4.666;2023-01-19T02:25:13;9.88;;;6.07;;
53036;SDS011;38924;52.134;4.666;2023-01-19T02:27:40;10.30;;;6.32;;
53036;SDS011;38924;52.134;4.666;2023-01-19T02:30:06;16.92;;;6.10;;
53036;SDS011;38924;52.134;4.666;2023-01-19T02:32:32;7.32;;;5.18;;
53036;SDS011;38924;52.134;4.666;2023-01-19T02:34:58;8.30;;;6.13;;
53036;SDS011;38924;52.134;4.666;2023-01-19T02:37:24;7.30;;;5.75;;
53036;SDS011;38924;52.134;4.666;2023-01-19T02:39:51;8.80;;;6.72;;
53036;SDS011;38924;52.134;4.666;2023-01-19T02:42:18;13.38;;;6.32;;
53036;SDS011;38924;52.134;4.666;2023-01-19T02:44:46;13.77;;;5.60;;
53036;SDS011;38924;52.134;4.666;2023-01-19T02:47:15;5.95;;;5.55;;
53036;SDS011;38924;52.134;4.666;2023-01-19T02:49:41;5.07;;;4.57;;
53036;SDS011;38924;52.134;4.666;2023-01-19T02:52:07;4.05;;;3.75;;
53036;SDS011;38924;52.134;4.666;2023-01-19T03:02:29;3.15;;;2.95;;
53036;SDS011;38924;52.134;4.666;2023-01-19T03:10:31;8.98;;;3.35;;
53036;SDS011;38924;52.134;4.666;2023-01-19T03:15:39;8.73;;;3.15;;
53036;SDS011;38924;52.134;4.666;2023-01-19T03:18:08;12.48;;;4.05;;
53036;SDS011;38924;52.134;4.666;2023-01-19T03:20:39;13.23;;;5.20;;
53036;SDS011;38924;52.134;4.666;2023-01-19T03:23:06;14.50;;;4.20;;
53036;SDS011;38924;52.134;4.666;2023-01-19T03:25:34;9.73;;;3.65;;
53036;SDS011;38924;52.134;4.666;2023-01-19T03:28:00;12.75;;;4.28;;
53036;SDS011;38924;52.134;4.666;2023-01-19T03:30:27;19.58;;;6.65;;
53036;SDS011;38924;52.134;4.666;2023-01-19T03:32:58;19.00;;;4.72;;
53036;SDS011;38924;52.134;4.666;2023-01-19T03:35:27;14.77;;;4.38;;
53036;SDS011;38924;52.134;4.666;2023-01-19T03:37:54;11.30;;;5.22;;
53036;SDS011;38924;52.134;4.666;2023-01-19T03:40:26;7.22;;;5.63;;
53036;SDS011;38924;52.134;4.666;2023-01-19T03:42:53;9.75;;;4.97;;
53036;SDS011;38924;52.134;4.666;2023-01-19T03:45:19;8.52;;;5.00;;
53036;SDS011;38924;52.134;4.666;2023-01-19T03:47:47;9.95;;;5.82;;
53036;SDS011;38924;52.134;4.666;2023-01-19T03:50:13;7.07;;;5.22;;
53036;SDS011;38924;52.134;4.666;2023-01-19T03:52:42;12.68;;;5.18;;
53036;SDS011;38924;52.134;4.666;2023-01-19T03:55:10;7.80;;;4.60;;
53036;SDS011;38924;52.134;4.666;2023-01-19T03:57:37;14.68;;;4.90;;
53036;SDS011;38924;52.134;4.666;2023-01-19T04:00:02;5.90;;;4.50;;
53036;SDS011;38924;52.134;4.666;2023-01-19T04:02:37;10.70;;;4.45;;
53036;SDS011;38924;52.134;4.666;2023-01-19T04:05:03;13.95;;;4.18;;
53036;SDS011;38924;52.134;4.666;2023-01-19T04:07:29;9.82;;;4.15;;
53036;SDS011;38924;52.134;4.666;2023-01-19T04:09:55;17.05;;;4.80;;
53036;SDS011;38924;52.134;4.666;2023-01-19T04:12:23;14.90;;;4.97;;
53036;SDS011;38924;52.134;4.666;2023-01-19T04:14:49;17.80;;;5.32;;
53036;SDS011;38924;52.134;4.666;2023-01-19T04:17:15;13.13;;;5.78;;
53036;SDS011;38924;52.134;4.666;2023-01-19T04:19:40;29.02;;;7.07;;
53036;SDS011;38924;52.134;4.666;2023-01-19T04:22:07;27.52;;;7.38;;
53036;SDS011;38924;52.134;4.666;2023-01-19T04:24:33;30.17;;;7.25;;
53036;SDS011;38924;52.134;4.666;2023-01-19T04:26:58;27.38;;;7.63;;
53036;SDS011;38924;52.134;4.666;2023-01-19T04:29:24;29.45;;;6.97;;
53036;SDS011;38924;52.134;4.666;2023-01-19T04:31:50;18.63;;;6.78;;
53036;SDS011;38924;52.134;4.666;2023-01-19T04:34:15;25.77;;;7.47;;
53036;SDS011;38924;52.134;4.666;2023-01-19T04:36:41;33.35;;;8.60;;
53036;SDS011;38924;52.134;4.666;2023-01-19T04:39:07;37.40;;;7.35;;
53036;SDS011;38924;52.134;4.666;2023-01-19T04:41:36;21.92;;;6.13;;
53036;SDS011;38924;52.134;4.666;2023-01-19T04:44:02;27.08;;;5.72;;
53036;SDS011;38924;52.134;4.666;2023-01-19T04:46:28;26.08;;;6.00;;
53036;SDS011;38924;52.134;4.666;2023-01-19T04:48:53;18.23;;;4.80;;
53036;SDS011;38924;52.134;4.666;2023-01-19T04:51:19;31.83;;;6.20;;
53036;SDS011;38924;52.134;4.666;2023-01-19T04:53:45;30.85;;;6.22;;
53036;SDS011;38924;52.134;4.666;2023-01-19T04:56:10;27.15;;;6.20;;
53036;SDS011;38924;52.134;4.666;2023-01-19T04:58:36;21.23;;;5.60;;
53036;SDS011;38924;52.134;4.666;2023-01-19T05:01:05;25.63;;;6.03;;
53036;SDS011;38924;52.134;4.666;2023-01-19T05:03:31;28.13;;;6.13;;
53036;SDS011;38924;52.134;4.666;2023-01-19T05:05:57;22.17;;;5.90;;
53036;SDS011;38924;52.134;4.666;2023-01-19T05:08:22;39.47;;;6.28;;
53036;SDS011;38924;52.134;4.666;2023-01-19T05:10:49;28.55;;;6.35;;
53036;SDS011;38924;52.134;4.666;2023-01-19T05:13:14;28.35;;;5.45;;
53036;SDS011;38924;52.134;4.666;2023-01-19T05:15:40;25.85;;;5.38;;
53036;SDS011;38924;52.134;4.666;2023-01-19T05:18:05;22.30;;;5.82;;
53036;SDS011;38924;52.134;4.666;2023-01-19T05:20:31;30.70;;;6.10;;
53036;SDS011;38924;52.134;4.666;2023-01-19T05:22:57;19.48;;;4.82;;
53036;SDS011;38924;52.134;4.666;2023-01-19T05:25:22;27.80;;;5.55;;
53036;SDS011;38924;52.134;4.666;2023-01-19T05:27:48;20.00;;;5.93;;
53036;SDS011;38924;52.134;4.666;2023-01-19T05:30:14;20.10;;;5.70;;
53036;SDS011;38924;52.134;4.666;2023-01-19T05:32:40;28.15;;;4.85;;
53036;SDS011;38924;52.134;4.666;2023-01-19T05:35:05;26.23;;;5.32;;
53036;SDS011;38924;52.134;4.666;2023-01-19T05:37:31;27.50;;;5.38;;
53036;SDS011;38924;52.134;4.666;2023-01-19T05:39:57;23.00;;;4.63;;
53036;SDS011;38924;52.134;4.666;2023-01-19T05:42:23;18.55;;;5.00;;
53036;SDS011;38924;52.134;4.666;2023-01-19T05:44:48;11.77;;;3.60;;
53036;SDS011;38924;52.134;4.666;2023-01-19T05:47:14;22.00;;;6.50;;
53036;SDS011;38924;52.134;4.666;2023-01-19T05:49:40;18.50;;;3.65;;
53036;SDS011;38924;52.134;4.666;2023-01-19T05:52:06;12.75;;;4.00;;
53036;SDS011;38924;52.134;4.666;2023-01-19T05:54:31;30.10;;;6.93;;
53036;SDS011;38924;52.134;4.666;2023-01-19T05:56:57;31.67;;;4.30;;
53036;SDS011;38924;52.134;4.666;2023-01-19T05:59:23;21.45;;;4.55;;
53036;SDS011;38924;52.134;4.666;2023-01-19T06:01:51;15.93;;;5.00;;
53036;SDS011;38924;52.134;4.666;2023-01-19T06:04:17;20.65;;;5.47;;
53036;SDS011;38924;52.134;4.666;2023-01-19T06:06:46;30.30;;;7.07;;
53036;SDS011;38924;52.134;4.666;2023-01-19T06:09:11;17.33;;;4.15;;
53036;SDS011;38924;52.134;4.666;2023-01-19T06:11:37;16.08;;;4.28;;
53036;SDS011;38924;52.134;4.666;2023-01-19T06:14:03;27.58;;;5.00;;
53036;SDS011;38924;52.134;4.666;2023-01-19T06:16:28;26.70;;;4.68;;
53036;SDS011;38924;52.134;4.666;2023-01-19T06:18:54;23.42;;;6.00;;
53036;SDS011;38924;52.134;4.666;2023-01-19T06:21:20;16.20;;;3.47;;
53036;SDS011;38924;52.134;4.666;2023-01-19T06:23:46;17.83;;;3.97;;
53036;SDS011;38924;52.134;4.666;2023-01-19T06:26:11;19.50;;;4.28;;
53036;SDS011;38924;52.134;4.666;2023-01-19T06:28:37;22.25;;;3.72;;
53036;SDS011;38924;52.134;4.666;2023-01-19T06:31:03;21.40;;;6.30;;
53036;SDS011;38924;52.134;4.666;2023-01-19T06:33:29;12.93;;;4.75;;
53036;SDS011;38924;52.134;4.666;2023-01-19T06:35:56;20.98;;;3.78;;
53036;SDS011;38924;52.134;4.666;2023-01-19T06:38:21;12.02;;;3.50;;
53036;SDS011;38924;52.134;4.666;2023-01-19T06:40:51;26.33;;;4.35;;
53036;SDS011;38924;52.134;4.666;2023-01-19T06:43:18;12.60;;;4.28;;
53036;SDS011;38924;52.134;4.666;2023-01-19T06:45:44;15.05;;;4.00;;
53036;SDS011;38924;52.134;4.666;2023-01-19T06:48:10;19.75;;;3.95;;
53036;SDS011;38924;52.134;4.666;2023-01-19T06:50:36;24.77;;;3.90;;
53036;SDS011;38924;52.134;4.666;2023-01-19T06:53:01;24.23;;;4.22;;
53036;SDS011;38924;52.134;4.666;2023-01-19T06:55:27;22.15;;;4.25;;
53036;SDS011;38924;52.134;4.666;2023-01-19T06:57:56;26.02;;;4.55;;
53036;SDS011;38924;52.134;4.666;2023-01-19T07:00:22;18.60;;;3.88;;
53036;SDS011;38924;52.134;4.666;2023-01-19T07:02:48;15.98;;;3.65;;
53036;SDS011;38924;52.134;4.666;2023-01-19T07:05:14;14.70;;;3.42;;
53036;SDS011;38924;52.134;4.666;2023-01-19T07:07:40;16.30;;;4.30;;
53036;SDS011;38924;52.134;4.666;2023-01-19T07:10:07;22.23;;;4.25;;
53036;SDS011;38924;52.134;4.666;2023-01-19T07:12:33;17.77;;;3.80;;
53036;SDS011;38924;52.134;4.666;2023-01-19T07:14:59;20.15;;;4.38;;
53036;SDS011;38924;52.134;4.666;2023-01-19T07:17:27;23.42;;;4.13;;
53036;SDS011;38924;52.134;4.666;2023-01-19T07:19:53;17.48;;;4.20;;
53036;SDS011;38924;52.134;4.666;2023-01-19T07:22:18;19.83;;;4.28;;
53036;SDS011;38924;52.134;4.666;2023-01-19T07:24:44;14.20;;;4.03;;
53036;SDS011;38924;52.134;4.666;2023-01-19T07:27:09;24.83;;;4.40;;
53036;SDS011;38924;52.134;4.666;2023-01-19T07:29:38;16.90;;;3.97;;
53036;SDS011;38924;52.134;4.666;2023-01-19T07:32:04;22.48;;;3.92;;
53036;SDS011;38924;52.134;4.666;2023-01-19T07:34:30;18.23;;;3.22;;
53036;SDS011;38924;52.134;4.666;2023-01-19T07:36:56;16.02;;;3.38;;
53036;SDS011;38924;52.134;4.666;2023-01-19T07:39:25;20.00;;;3.83;;
53036;SDS011;38924;52.134;4.666;2023-01-19T07:41:53;16.48;;;4.10;;
53036;SDS011;38924;52.134;4.666;2023-01-19T07:44:21;19.05;;;3.95;;
53036;SDS011;38924;52.134;4.666;2023-01-19T07:46:48;20.67;;;3.22;;
53036;SDS011;38924;52.134;4.666;2023-01-19T07:49:15;17.90;;;4.35;;
53036;SDS011;38924;52.134;4.666;2023-01-19T07:51:41;10.75;;;2.45;;
53036;SDS011;38924;52.134;4.666;2023-01-19T07:54:08;11.70;;;2.50;;
53036;SDS011;38924;52.134;4.666;2023-01-19T07:56:33;7.18;;;2.67;;
53036;SDS011;38924;52.134;4.666;2023-01-19T07:58:59;14.75;;;3.03;;
53036;SDS011;38924;52.134;4.666;2023-01-19T08:01:25;16.05;;;2.75;;
53036;SDS011;38924;52.134;4.666;2023-01-19T08:03:50;10.63;;;3.53;;
53036;SDS011;38924;52.134;4.666;2023-01-19T08:06:20;15.98;;;3.60;;
53036;SDS011;38924;52.134;4.666;2023-01-19T08:08:46;14.45;;;2.88;;
53036;SDS011;38924;52.134;4.666;2023-01-19T08:11:12;10.98;;;3.10;;
53036;SDS011;38924;52.134;4.666;2023-01-19T08:13:38;12.95;;;3.03;;
53036;SDS011;38924;52.134;4.666;2023-01-19T08:16:04;13.15;;;3.25;;
53036;SDS011;38924;52.134;4.666;2023-01-19T08:18:30;14.00;;;4.07;;
53036;SDS011;38924;52.134;4.666;2023-01-19T08:20:58;12.95;;;3.75;;
53036;SDS011;38924;52.134;4.666;2023-01-19T08:23:24;11.20;;;3.38;;
53036;SDS011;38924;52.134;4.666;2023-01-19T08:25:50;17.80;;;4.82;;
53036;SDS011;38924;52.134;4.666;2023-01-19T08:28:15;15.20;;;3.88;;
53036;SDS011;38924;52.134;4.666;2023-01-19T08:30:41;9.10;;;3.25;;
53036;SDS011;38924;52.134;4.666;2023-01-19T08:33:11;12.38;;;3.47;;
53036;SDS011;38924;52.134;4.666;2023-01-19T08:35:38;19.15;;;5.07;;
53036;SDS011;38924;52.134;4.666;2023-01-19T08:38:05;12.40;;;5.05;;
53036;SDS011;38924;52.134;4.666;2023-01-19T08:40:31;13.25;;;5.28;;
53036;SDS011;38924;52.134;4.666;2023-01-19T08:43:00;14.10;;;4.53;;
53036;SDS011;38924;52.134;4.666;2023-01-19T08:45:29;12.48;;;4.43;;
53036;SDS011;38924;52.134;4.666;2023-01-19T08:47:55;8.00;;;3.75;;
53036;SDS011;38924;52.134;4.666;2023-01-19T08:50:24;12.63;;;4.70;;
53036;SDS011;38924;52.134;4.666;2023-01-19T08:52:50;20.25;;;5.07;;
53036;SDS011;38924;52.134;4.666;2023-01-19T08:55:17;12.30;;;5.45;;
53036;SDS011;38924;52.134;4.666;2023-01-19T08:57:43;12.43;;;5.18;;
53036;SDS011;38924;52.134;4.666;2023-01-19T09:00:09;17.10;;;5.65;;
53036;SDS011;38924;52.134;4.666;2023-01-19T09:02:35;9.70;;;5.30;;
53036;SDS011;38924;52.134;4.666;2023-01-19T09:05:01;17.13;;;6.60;;
53036;SDS011;38924;52.134;4.666;2023-01-19T09:07:27;13.25;;;7.15;;
53036;SDS011;38924;52.134;4.666;2023-01-19T09:09:53;16.63;;;5.60;;
53036;SDS011;38924;52.134;4.666;2023-01-19T09:12:18;13.43;;;5.40;;
53036;SDS011;38924;52.134;4.666;2023-01-19T09:14:44;10.80;;;6.18;;
53036;SDS011;38924;52.134;4.666;2023-01-19T09:17:10;17.95;;;7.55;;
53036;SDS011;38924;52.134;4.666;2023-01-19T09:19:39;9.88;;;5.93;;
53036;SDS011;38924;52.134;4.666;2023-01-19T09:22:05;12.82;;;6.25;;
53036;SDS011;38924;52.134;4.666;2023-01-19T09:24:30;14.75;;;6.45;;
53036;SDS011;38924;52.134;4.666;2023-01-19T09:26:56;15.10;;;7.25;;
53036;SDS011;38924;52.134;4.666;2023-01-19T09:29:22;11.88;;;6.38;;
53036;SDS011;38924;52.134;4.666;2023-01-19T09:31:47;11.43;;;7.70;;
53036;SDS011;38924;52.134;4.666;2023-01-19T09:34:13;16.27;;;7.53;;
53036;SDS011;38924;52.134;4.666;2023-01-19T09:36:41;12.50;;;7.57;;
53036;SDS011;38924;52.134;4.666;2023-01-19T09:39:07;10.90;;;8.20;;
53036;SDS011;38924;52.134;4.666;2023-01-19T09:41:34;12.63;;;8.65;;
53036;SDS011;38924;52.134;4.666;2023-01-19T09:44:00;11.38;;;8.52;;
53036;SDS011;38924;52.134;4.666;2023-01-19T09:46:28;15.90;;;8.35;;
53036;SDS011;38924;52.134;4.666;2023-01-19T09:48:57;12.32;;;7.13;;
53036;SDS011;38924;52.134;4.666;2023-01-19T09:51:25;11.10;;;6.45;;
53036;SDS011;38924;52.134;4.666;2023-01-19T09:53:55;11.82;;;6.93;;
53036;SDS011;38924;52.134;4.666;2023-01-19T09:56:22;10.68;;;7.05;;
53036;SDS011;38924;52.134;4.666;2023-01-19T09:58:49;12.60;;;7.65;;
53036;SDS011;38924;52.134;4.666;2023-01-19T10:01:29;10.20;;;6.68;;
53036;SDS011;38924;52.134;4.666;2023-01-19T10:04:05;12.60;;;7.28;;
53036;SDS011;38924;52.134;4.666;2023-01-19T10:06:32;21.77;;;7.63;;
53036;SDS011;38924;52.134;4.666;2023-01-19T10:12:13;12.27;;;7.45;;
53036;SDS011;38924;52.134;4.666;2023-01-19T10:14:39;10.00;;;9.20;;
53036;SDS011;38924;52.134;4.666;2023-01-19T10:19:44;10.50;;;9.25;;
53036;SDS011;38924;52.134;4.666;2023-01-19T10:22:24;10.80;;;9.20;;
53036;SDS011;38924;52.134;4.666;2023-01-19T10:24:52;13.13;;;9.68;;
53036;SDS011;38924;52.134;4.666;2023-01-19T10:27:20;11.90;;;9.23;;
53036;SDS011;38924;52.134;4.666;2023-01-19T10:29:47;10.85;;;9.85;;
53036;SDS011;38924;52.134;4.666;2023-01-19T10:32:21;17.63;;;9.40;;
53036;SDS011;38924;52.134;4.666;2023-01-19T10:34:48;16.00;;;10.33;;
53036;SDS011;38924;52.134;4.666;2023-01-19T10:37:16;14.60;;;10.13;;
53036;SDS011;38924;52.134;4.666;2023-01-19T10:39:45;17.88;;;9.25;;
53036;SDS011;38924;52.134;4.666;2023-01-19T10:42:12;13.68;;;9.93;;
53036;SDS011;38924;52.134;4.666;2023-01-19T10:44:43;12.55;;;8.40;;
53036;SDS011;38924;52.134;4.666;2023-01-19T10:47:52;12.13;;;8.75;;
53036;SDS011;38924;52.134;4.666;2023-01-19T10:49:58;14.43;;;9.18;;
53036;SDS011;38924;52.134;4.666;2023-01-19T10:54:49;14.48;;;9.15;;
53036;SDS011;38924;52.134;4.666;2023-01-19T10:57:21;11.18;;;9.40;;
53036;SDS011;38924;52.134;4.666;2023-01-19T10:59:50;13.38;;;9.00;;
53036;SDS011;38924;52.134;4.666;2023-01-19T11:02:26;15.70;;;8.65;;
53036;SDS011;38924;52.134;4.666;2023-01-19T11:04:53;21.40;;;8.57;;
53036;SDS011;38924;52.134;4.666;2023-01-19T11:07:32;13.82;;;7.97;;
53036;SDS011;38924;52.134;4.666;2023-01-19T11:12:46;15.70;;;8.73;;
53036;SDS011;38924;52.134;4.666;2023-01-19T11:15:20;11.15;;;8.65;;
53036;SDS011;38924;52.134;4.666;2023-01-19T11:17:47;8.63;;;7.80;;
53036;SDS011;38924;52.134;4.666;2023-01-19T11:20:17;9.27;;;8.35;;
53036;SDS011;38924;52.134;4.666;2023-01-19T11:22:43;9.60;;;8.68;;
53036;SDS011;38924;52.134;4.666;2023-01-19T11:25:18;10.25;;;9.20;;
53036;SDS011;38924;52.134;4.666;2023-01-19T11:27:47;10.55;;;9.18;;
53036;SDS011;38924;52.134;4.666;2023-01-19T11:30:17;11.75;;;9.07;;
53036;SDS011;38924;52.134;4.666;2023-01-19T11:32:44;11.25;;;9.90;;
53036;SDS011;38924;52.134;4.666;2023-01-19T11:38:14;9.98;;;9.00;;
53036;SDS011;38924;52.134;4.666;2023-01-19T11:40:41;11.32;;;9.50;;
53036;SDS011;38924;52.134;4.666;2023-01-19T11:43:10;10.15;;;8.75;;
53036;SDS011;38924;52.134;4.666;2023-01-19T11:45:36;11.75;;;8.40;;
53036;SDS011;38924;52.134;4.666;2023-01-19T11:48:04;9.85;;;8.55;;
53036;SDS011;38924;52.134;4.666;2023-01-19T11:50:43;9.70;;;8.80;;
53036;SDS011;38924;52.134;4.666;2023-01-19T11:55:42;17.70;;;9.00;;
53036;SDS011;38924;52.134;4.666;2023-01-19T11:58:15;10.15;;;9.13;;
53036;SDS011;38924;52.134;4.666;2023-01-19T12:00:45;10.40;;;7.47;;
53036;SDS011;38924;52.134;4.666;2023-01-19T12:06:07;9.77;;;6.43;;
53036;SDS011;38924;52.134;4.666;2023-01-19T12:08:41;12.00;;;7.55;;
53036;SDS011;38924;52.134;4.666;2023-01-19T12:11:08;10.43;;;7.20;;
53036;SDS011;38924;52.134;4.666;2023-01-19T12:13:35;13.27;;;7.50;;
53036;SDS011;38924;52.134;4.666;2023-01-19T12:16:03;7.28;;;6.68;;
53036;SDS011;38924;52.134;4.666;2023-01-19T12:19:13;11.68;;;6.60;;
53036;SDS011;38924;52.134;4.666;2023-01-19T12:21:19;8.27;;;5.93;;
53036;SDS011;38924;52.134;4.666;2023-01-19T12:23:57;8.85;;;6.70;;
53036;SDS011;38924;52.134;4.666;2023-01-19T12:28:55;9.32;;;7.30;;
53036;SDS011;38924;52.134;4.666;2023-01-19T12:31:23;11.43;;;8.45;;
53036;SDS011;38924;52.134;4.666;2023-01-19T12:33:49;9.77;;;8.95;;
53036;SDS011;38924;52.134;4.666;2023-01-19T12:39:23;13.75;;;10.30;;
53036;SDS011;38924;52.134;4.666;2023-01-19T12:41:36;11.38;;;10.23;;
53036;SDS011;38924;52.134;4.666;2023-01-19T12:46:34;12.93;;;10.35;;
53036;SDS011;38924;52.134;4.666;2023-01-19T12:49:11;12.75;;;10.30;;
53036;SDS011;38924;52.134;4.666;2023-01-19T12:51:47;11.00;;;9.73;;
53036;SDS011;38924;52.134;4.666;2023-01-19T12:54:18;12.50;;;10.55;;
53036;SDS011;38924;52.134;4.666;2023-01-19T12:56:45;9.70;;;8.82;;
53036;SDS011;38924;52.134;4.666;2023-01-19T12:59:23;13.55;;;9.43;;
53036;SDS011;38924;52.134;4.666;2023-01-19T13:04:34;10.88;;;9.85;;
53036;SDS011;38924;52.134;4.666;2023-01-19T13:09:33;12.73;;;10.90;;
53036;SDS011;38924;52.134;4.666;2023-01-19T13:12:20;12.95;;;9.57;;
53036;SDS011;38924;52.134;4.666;2023-01-19T13:14:46;9.02;;;8.23;;
53036;SDS011;38924;52.134;4.666;2023-01-19T13:17:17;8.60;;;7.88;;
53036;SDS011;38924;52.134;4.666;2023-01-19T13:19:50;10.55;;;9.40;;
53036;SDS011;38924;52.134;4.666;2023-01-19T13:25:07;7.20;;;6.70;;
53036;SDS011;38924;52.134;4.666;2023-01-19T13:27:37;11.90;;;8.30;;
53036;SDS011;38924;52.134;4.666;2023-01-19T13:30:10;9.32;;;6.82;;
53036;SDS011;38924;52.134;4.666;2023-01-19T13:32:38;8.25;;;6.70;;
53036;SDS011;38924;52.134;4.666;2023-01-19T13:35:04;7.53;;;6.82;;
53036;SDS011;38924;52.134;4.666;2023-01-19T13:37:41;7.90;;;7.15;;
53036;SDS011;38924;52.134;4.666;2023-01-19T13:40:14;7.50;;;6.90;;
53036;SDS011;38924;52.134;4.666;2023-01-19T13:42:44;11.38;;;7.55;;
53036;SDS011;38924;52.134;4.666;2023-01-19T13:50:29;12.45;;;6.57;;
53036;SDS011;38924;52.134;4.666;2023-01-19T13:52:54;7.78;;;5.18;;
53036;SDS011;38924;52.134;4.666;2023-01-19T13:55:21;7.82;;;5.32;;
53036;SDS011;38924;52.134;4.666;2023-01-19T13:57:48;13.25;;;6.82;;
53036;SDS011;38924;52.134;4.666;2023-01-19T14:02:54;9.13;;;5.90;;
53036;SDS011;38924;52.134;4.666;2023-01-19T14:05:23;6.88;;;6.22;;
53036;SDS011;38924;52.134;4.666;2023-01-19T14:10:36;9.55;;;7.38;;
53036;SDS011;38924;52.134;4.666;2023-01-19T14:13:11;9.70;;;6.85;;
53036;SDS011;38924;52.134;4.666;2023-01-19T14:15:47;10.38;;;7.47;;
53036;SDS011;38924;52.134;4.666;2023-01-19T14:28:50;7.55;;;6.35;;
53036;SDS011;38924;52.134;4.666;2023-01-19T14:31:23;13.85;;;7.82;;
53036;SDS011;38924;52.134;4.666;2023-01-19T14:33:50;7.68;;;6.97;;
53036;SDS011;38924;52.134;4.666;2023-01-19T14:36:32;7.57;;;6.95;;
53036;SDS011;38924;52.134;4.666;2023-01-19T14:38:58;10.30;;;7.32;;
53036;SDS011;38924;52.134;4.666;2023-01-19T14:41:26;12.23;;;9.48;;
53036;SDS011;38924;52.134;4.666;2023-01-19T14:43:55;6.40;;;5.95;;
53036;SDS011;38924;52.134;4.666;2023-01-19T14:46:21;13.25;;;6.80;;
53036;SDS011;38924;52.134;4.666;2023-01-19T14:48:48;11.50;;;6.55;;
53036;SDS011;38924;52.134;4.666;2023-01-19T14:51:16;6.90;;;5.80;;
53036;SDS011;38924;52.134;4.666;2023-01-19T14:53:45;9.68;;;6.43;;
53036;SDS011;38924;52.134;4.666;2023-01-19T14:56:12;7.05;;;5.43;;
53036;SDS011;38924;52.134;4.666;2023-01-19T14:58:48;11.57;;;6.68;;
53036;SDS011;38924;52.134;4.666;2023-01-19T15:01:13;7.43;;;6.13;;
53036;SDS011;38924;52.134;4.666;2023-01-19T15:03:39;9.13;;;6.10;;
53036;SDS011;38924;52.134;4.666;2023-01-19T15:06:04;8.88;;;5.45;;
53036;SDS011;38924;52.134;4.666;2023-01-19T15:08:31;8.32;;;5.78;;
53036;SDS011;38924;52.134;4.666;2023-01-19T15:11:08;6.10;;;5.60;;
53036;SDS011;38924;52.134;4.666;2023-01-19T15:13:33;5.65;;;5.03;;
53036;SDS011;38924;52.134;4.666;2023-01-19T15:16:00;8.32;;;4.93;;
53036;SDS011;38924;52.134;4.666;2023-01-19T15:18:27;6.72;;;4.82;;
53036;SDS011;38924;52.134;4.666;2023-01-19T15:20:53;8.65;;;5.68;;
53036;SDS011;38924;52.134;4.666;2023-01-19T15:23:38;10.23;;;5.22;;
53036;SDS011;38924;52.134;4.666;2023-01-19T15:26:04;5.50;;;5.00;;
53036;SDS011;38924;52.134;4.666;2023-01-19T15:28:30;11.07;;;7.22;;
53036;SDS011;38924;52.134;4.666;2023-01-19T15:30:56;10.10;;;6.30;;
53036;SDS011;38924;52.134;4.666;2023-01-19T15:33:23;12.55;;;8.00;;
53036;SDS011;38924;52.134;4.666;2023-01-19T15:35:49;7.80;;;5.35;;
53036;SDS011;38924;52.134;4.666;2023-01-19T15:38:18;10.10;;;5.40;;
53036;SDS011;38924;52.134;4.666;2023-01-19T15:40:46;6.00;;;4.75;;
53036;SDS011;38924;52.134;4.666;2023-01-19T15:43:12;7.47;;;5.18;;
53036;SDS011;38924;52.134;4.666;2023-01-19T15:45:52;7.30;;;4.70;;
53036;SDS011;38924;52.134;4.666;2023-01-19T15:48:21;7.38;;;4.25;;
53036;SDS011;38924;52.134;4.666;2023-01-19T15:50:46;5.47;;;4.82;;
53036;SDS011;38924;52.134;4.666;2023-01-19T15:53:13;8.15;;;5.05;;
53036;SDS011;38924;52.134;4.666;2023-01-19T15:55:39;8.40;;;5.68;;
53036;SDS011;38924;52.134;4.666;2023-01-19T15:58:07;12.27;;;7.40;;